createdAt,value
2023-02-22T00:00:36.740Z,100289.81
2023-02-22T00:01:19.428Z,100295.16
2023-02-22T00:01:51.654Z,100288.13
2023-02-22T00:02:29.158Z,100290.00
2023-02-22T00:03:00.921Z,100292.44
2023-02-22T00:03:32.821Z,100286.06
2023-02-22T00:04:06.839Z,100298.34
2023-02-22T00:04:42.431Z,100301.38
2023-02-22T00:05:16.917Z,100297.53
2023-02-22T00:05:48.645Z,100295.75
2023-02-22T00:06:25.114Z,100294.91
2023-02-22T00:07:01.299Z,100302.66
2023-02-22T00:07:33.797Z,100297.31
2023-02-22T00:08:09.383Z,100293.28
2023-02-22T00:08:41.097Z,100297.88
2023-02-22T00:09:13.839Z,100296.22
2023-02-22T00:09:45.633Z,100300.41
2023-02-22T00:10:20.457Z,100300.41
2023-02-22T00:10:52.152Z,100300.31
2023-02-22T00:11:23.855Z,100298.53
2023-02-22T00:11:55.533Z,100304.25
2023-02-22T00:12:29.318Z,100303.13
2023-02-22T00:13:00.996Z,100311.63
2023-02-22T00:13:32.661Z,100304.28
2023-02-22T00:14:04.529Z,100311.00
2023-02-22T00:14:36.211Z,100308.38
2023-02-22T00:15:08.984Z,100305.84
2023-02-22T00:15:41.558Z,100308.97
2023-02-22T00:16:21.973Z,100309.59
2023-02-22T00:16:56.291Z,100310.06
2023-02-22T00:17:30.516Z,100309.31
2023-02-22T00:18:04.717Z,100309.50
2023-02-22T00:18:37.898Z,100314.75
2023-02-22T00:19:10.612Z,100312.31
2023-02-22T00:19:42.286Z,100320.91
2023-02-22T00:20:18.751Z,100306.59
2023-02-22T00:20:50.537Z,100314.75
2023-02-22T00:21:22.775Z,100319.69
2023-02-22T00:21:54.520Z,100315.69
2023-02-22T00:22:26.269Z,100312.22
2023-02-22T00:22:57.999Z,100322.59
2023-02-22T00:23:31.960Z,100320.19
2023-02-22T00:24:22.827Z,100318.69
2023-02-22T00:24:55.435Z,100312.13
2023-02-22T00:25:27.101Z,100310.25
2023-02-22T00:26:01.193Z,100322.31
2023-02-22T00:26:33.938Z,100316.63
2023-02-22T00:27:05.635Z,100316.41
2023-02-22T00:27:37.382Z,100313.91
2023-02-22T00:28:09.053Z,100319.97
2023-02-22T00:28:42.498Z,100325.13
2023-02-22T00:29:14.255Z,100326.63
2023-02-22T00:29:47.273Z,100328.97
2023-02-22T00:30:26.757Z,100330.47
2023-02-22T00:30:59.982Z,100330.56
2023-02-22T00:31:31.779Z,100317.47
2023-02-22T00:32:03.719Z,100323.34
2023-02-22T00:32:35.920Z,100326.81
2023-02-22T00:33:07.665Z,100326.91
2023-02-22T00:33:40.583Z,100323.53
2023-02-22T00:34:14.046Z,100329.97
2023-02-22T00:34:45.806Z,100316.88
2023-02-22T00:35:20.351Z,100329.63
2023-02-22T00:35:52.228Z,100324.28
2023-02-22T00:36:23.927Z,100325.22
2023-02-22T00:36:55.647Z,100329.63
2023-02-22T00:37:31.863Z,100321.84
2023-02-22T00:38:04.394Z,100321.00
2023-02-22T00:38:36.174Z,100325.41
2023-02-22T00:39:09.941Z,100326.34
2023-02-22T00:39:41.601Z,100319.59
2023-02-22T00:40:18.129Z,100317.81
2023-02-22T00:40:49.867Z,100314.56
2023-02-22T00:41:21.617Z,100327.53
2023-02-22T00:41:53.402Z,100318.75
2023-02-22T00:42:25.237Z,100313.91
2023-02-22T00:43:02.471Z,100319.50
2023-02-22T00:43:34.968Z,100322.13
2023-02-22T00:44:06.652Z,100314.44
2023-02-22T00:44:38.739Z,100319.44
2023-02-22T00:45:10.446Z,100324.66
2023-02-22T00:45:42.417Z,100310.25
2023-02-22T00:46:15.170Z,100306.16
2023-02-22T00:46:46.938Z,100319.13
2023-02-22T00:47:18.812Z,100331.75
2023-02-22T00:47:51.512Z,100320.63
2023-02-22T00:48:23.402Z,100312.69
2023-02-22T00:48:55.126Z,100330.47
2023-02-22T00:49:26.829Z,100321.13
2023-02-22T00:49:58.778Z,100326.50
2023-02-22T00:50:32.172Z,100328.38
2023-02-22T00:51:04.232Z,100323.34
2023-02-22T00:51:35.981Z,100319.78
2023-02-22T00:52:09.149Z,100326.59
2023-02-22T00:52:40.840Z,100313.91
2023-02-22T00:53:12.585Z,100318.94
2023-02-22T00:53:44.891Z,100320.28
2023-02-22T00:54:20.097Z,100326.25
2023-02-22T00:54:51.794Z,100328.88
2023-02-22T00:55:27.854Z,100322.59
2023-02-22T00:55:59.581Z,100324.28
2023-02-22T00:56:34.500Z,100320.72
2023-02-22T00:57:06.274Z,100319.44
2023-02-22T00:57:38.310Z,100329.63
2023-02-22T00:58:10.080Z,100310.06
2023-02-22T00:58:41.752Z,100330.75
2023-02-22T00:59:13.425Z,100327.19
2023-02-22T00:59:45.144Z,100327.63
2023-02-22T01:00:45.742Z,100317.47
2023-02-22T01:01:17.657Z,100310.34
2023-02-22T01:01:49.653Z,100316.53
2023-02-22T01:02:21.364Z,100320.72
2023-02-22T01:02:54.239Z,100315.28
2023-02-22T01:03:25.977Z,100308.16
2023-02-22T01:03:57.911Z,100306.59
2023-02-22T01:04:29.880Z,100306.69
2023-02-22T01:05:01.638Z,100305.09
2023-02-22T01:05:33.715Z,100319.03
2023-02-22T01:06:05.803Z,100314.84
2023-02-22T01:06:37.729Z,100315.47
2023-02-22T01:07:09.634Z,100306.69
2023-02-22T01:07:41.404Z,100310.03
2023-02-22T01:08:15.679Z,100308.38
2023-02-22T01:08:48.898Z,100307.25
2023-02-22T01:09:21.660Z,100306.88
2023-02-22T01:09:53.726Z,100310.03
2023-02-22T01:10:28.295Z,100307.63
2023-02-22T01:11:01.007Z,100299.31
2023-02-22T01:11:32.724Z,100308.56
2023-02-22T01:12:04.752Z,100318.09
2023-02-22T01:12:36.897Z,100313.31
2023-02-22T01:13:12.311Z,100311.38
2023-02-22T01:13:47.449Z,100319.97
2023-02-22T01:14:21.148Z,100315.47
2023-02-22T01:14:57.003Z,100309.50
2023-02-22T01:15:30.848Z,100307.72
2023-02-22T01:16:03.304Z,100308.56
2023-02-22T01:16:35.522Z,100311.38
2023-02-22T01:17:07.208Z,100307.81
2023-02-22T01:17:40.237Z,100295.91
2023-02-22T01:18:12.975Z,100312.22
2023-02-22T01:18:44.743Z,100310.63
2023-02-22T01:19:17.079Z,100308.28
2023-02-22T01:19:48.844Z,100310.63
2023-02-22T01:20:26.149Z,100308.66
2023-02-22T01:20:57.870Z,100301.09
2023-02-22T01:21:29.667Z,100316.03
2023-02-22T01:22:01.427Z,100316.03
2023-02-22T01:22:33.390Z,100301.09
2023-02-22T01:23:08.148Z,100315.50
2023-02-22T01:23:39.916Z,100298.19
2023-02-22T01:24:16.370Z,100319.44
2023-02-22T01:24:49.951Z,100312.13
2023-02-22T01:25:24.990Z,100311.38
2023-02-22T01:25:57.279Z,100315.88
2023-02-22T01:26:28.984Z,100313.25
2023-02-22T01:27:02.581Z,100302.19
2023-02-22T01:27:38.740Z,100309.13
2023-02-22T01:28:10.577Z,100316.31
2023-02-22T01:28:42.255Z,100313.91
2023-02-22T01:29:15.817Z,100306.34
2023-02-22T01:29:50.175Z,100307.81
2023-02-22T01:30:25.796Z,100310.16
2023-02-22T01:30:58.055Z,100307.81
2023-02-22T01:31:29.972Z,100312.22
2023-02-22T01:32:01.825Z,100304.47
2023-02-22T01:32:33.792Z,100311.38
2023-02-22T01:33:07.583Z,100305.22
2023-02-22T01:33:41.426Z,100307.81
2023-02-22T01:34:13.175Z,100305.84
2023-02-22T01:34:47.224Z,100308.38
2023-02-22T01:35:24.872Z,100301.75
2023-02-22T01:35:56.681Z,100306.69
2023-02-22T01:36:28.330Z,100302.09
2023-02-22T01:37:01.848Z,100297.25
2023-02-22T01:37:33.525Z,100296.59
2023-02-22T01:38:05.207Z,100305.41
2023-02-22T01:38:38.193Z,100295.13
2023-02-22T01:39:12.753Z,100298.28
2023-02-22T01:39:44.561Z,100286.31
2023-02-22T01:40:26.489Z,100291.28
2023-02-22T01:40:58.177Z,100299.88
2023-02-22T01:41:29.842Z,100301.44
2023-02-22T01:42:01.820Z,100299.69
2023-02-22T01:42:33.900Z,100294.84
2023-02-22T01:43:16.726Z,100306.16
2023-02-22T01:43:48.570Z,100301.94
2023-02-22T01:44:31.096Z,100305.69
2023-02-22T01:45:30.847Z,100308.66
2023-02-22T01:46:05.742Z,100289.69
2023-02-22T01:46:37.469Z,100297.63
2023-02-22T01:47:09.216Z,100290.91
2023-02-22T01:47:41.405Z,100307.28
2023-02-22T01:48:16.928Z,100301.28
2023-02-22T01:49:03.111Z,100298.78
2023-02-22T01:49:48.149Z,100289.50
2023-02-22T01:50:20.041Z,100303.81
2023-02-22T01:51:13.082Z,100296.78
2023-02-22T01:51:50.638Z,100298.56
2023-02-22T01:52:22.888Z,100297.00
2023-02-22T01:52:55.467Z,100298.78
2023-02-22T01:53:34.885Z,100294.56
2023-02-22T01:54:18.400Z,100295.66
2023-02-22T01:54:55.822Z,100290.63
2023-02-22T01:55:28.652Z,100302.78
2023-02-22T01:56:01.572Z,100292.09
2023-02-22T01:56:37.791Z,100296.50
2023-02-22T01:57:22.115Z,100286.03
2023-02-22T01:57:54.184Z,100290.16
2023-02-22T01:58:30.430Z,100276.78
2023-02-22T01:59:10.006Z,100284.34
2023-02-22T01:59:46.928Z,100285.09
2023-02-22T02:00:21.490Z,100288.19
2023-02-22T02:00:53.579Z,100285.38
2023-02-22T02:01:26.537Z,100294.19
2023-02-22T02:01:58.319Z,100285.69
2023-02-22T02:02:30.029Z,100279.03
2023-02-22T02:03:18.239Z,100287.72
2023-02-22T02:03:53.011Z,100293.44
2023-02-22T02:04:26.198Z,100289.97
2023-02-22T02:04:59.455Z,100287.34
2023-02-22T02:05:34.354Z,100278.38
2023-02-22T02:06:12.442Z,100281.56
2023-02-22T02:06:45.687Z,100291.94
2023-02-22T02:07:21.518Z,100282.75
2023-02-22T02:07:54.153Z,100287.56
2023-02-22T02:08:37.004Z,100295.56
2023-02-22T02:09:50.028Z,100293.88
2023-02-22T02:10:24.348Z,100300.25
2023-02-22T02:10:58.121Z,100297.81
2023-02-22T02:11:31.232Z,100294.06
2023-02-22T02:12:06.511Z,100304.38
2023-02-22T02:12:38.222Z,100295.69
2023-02-22T02:13:10.728Z,100300.31
2023-02-22T02:13:42.534Z,100295.47
2023-02-22T02:14:15.305Z,100291.16
2023-02-22T02:14:47.008Z,100288.47
2023-02-22T02:15:31.189Z,100292.75
2023-02-22T02:16:03.041Z,100295.84
2023-02-22T02:16:50.696Z,100296.78
2023-02-22T02:17:23.727Z,100295.84
2023-02-22T02:18:05.540Z,100300.03
2023-02-22T02:18:37.340Z,100292.28
2023-02-22T02:19:46.741Z,100295.00
2023-02-22T02:20:28.401Z,100288.53
2023-02-22T02:21:28.915Z,100290.78
2023-02-22T02:22:19.261Z,100294.25
2023-02-22T02:23:17.006Z,100292.28
2023-02-22T02:24:12.965Z,100283.41
2023-02-22T02:25:18.147Z,100290.59
2023-02-22T02:26:31.525Z,100281.53
2023-02-22T02:27:13.341Z,100286.88
2023-02-22T02:28:22.904Z,100292.53
2023-02-22T02:29:00.471Z,100289.47
2023-02-22T02:29:34.915Z,100288.88
2023-02-22T02:30:24.641Z,100280.63
2023-02-22T02:31:15.367Z,100278.03
2023-02-22T02:32:12.167Z,100273.56
2023-02-22T02:33:18.527Z,100280.56
2023-02-22T02:34:07.670Z,100282.06
2023-02-22T02:34:39.286Z,100284.09
2023-02-22T02:35:21.610Z,100281.84
2023-02-22T02:36:12.820Z,100283.63
2023-02-22T02:36:59.102Z,100271.09
2023-02-22T02:37:49.232Z,100266.38
2023-02-22T02:38:44.189Z,100284.25
2023-02-22T02:39:35.833Z,100290.41
2023-02-22T02:40:17.951Z,100275.91
2023-02-22T02:40:57.076Z,100265.28
2023-02-22T02:41:45.455Z,100276.25
2023-02-22T02:42:22.671Z,100266.97
2023-02-22T02:42:58.324Z,100287.53
2023-02-22T02:43:37.769Z,100280.78
2023-02-22T02:44:17.027Z,100276.41
2023-02-22T02:45:11.644Z,100270.50
2023-02-22T02:45:55.202Z,100283.16
2023-02-22T02:46:34.902Z,100280.97
2023-02-22T02:47:14.766Z,100289.72
2023-02-22T02:47:53.848Z,100274.41
2023-02-22T02:48:28.990Z,100270.88
2023-02-22T02:49:15.581Z,100278.63
2023-02-22T02:50:13.469Z,100282.16
2023-02-22T02:50:48.748Z,100284.69
2023-02-22T02:51:24.844Z,100283.09
2023-02-22T02:51:58.633Z,100284.69
2023-02-22T02:52:34.824Z,100281.50
2023-02-22T02:53:09.063Z,100285.06
2023-02-22T02:53:46.478Z,100281.88
2023-02-22T02:54:19.742Z,100290.59
2023-02-22T02:54:53.619Z,100279.75
2023-02-22T02:55:25.711Z,100287.59
2023-02-22T02:55:59.788Z,100281.53
2023-02-22T02:56:32.073Z,100270.41
2023-02-22T02:57:04.632Z,100278.00
2023-02-22T02:57:36.335Z,100284.81
2023-02-22T02:58:08.955Z,100288.34
2023-02-22T02:58:51.009Z,100280.69
2023-02-22T02:59:34.827Z,100288.63
2023-02-22T03:00:24.067Z,100283.56
2023-02-22T03:01:01.502Z,100286.09
2023-02-22T03:01:45.284Z,100280.03
2023-02-22T03:02:35.501Z,100280.13
2023-02-22T03:03:37.496Z,100273.22
2023-02-22T03:04:22.959Z,100276.50
2023-02-22T03:05:15.905Z,100277.31
2023-02-22T03:06:13.383Z,100268.75
2023-02-22T03:07:22.412Z,100282.38
2023-02-22T03:08:03.121Z,100280.78
2023-02-22T03:08:40.092Z,100273.13
2023-02-22T03:09:37.654Z,100282.28
2023-02-22T03:10:37.968Z,100284.06
2023-02-22T03:11:23.509Z,100271.00
2023-02-22T03:12:32.166Z,100273.59
2023-02-22T03:13:16.160Z,100280.50
2023-02-22T03:14:15.805Z,100276.97
2023-02-22T03:15:02.905Z,100280.34
2023-02-22T03:15:43.348Z,100277.72
2023-02-22T03:16:52.200Z,100279.41
2023-02-22T03:17:37.183Z,100279.66
2023-02-22T03:18:33.219Z,100278.81
2023-02-22T03:19:29.782Z,100282.38
2023-02-22T03:20:15.020Z,100280.41
2023-02-22T03:20:55.574Z,100281.00
2023-02-22T03:21:55.736Z,100279.06
2023-02-22T03:22:44.191Z,100273.09
2023-02-22T03:24:08.202Z,100276.97
2023-02-22T03:24:53.165Z,100280.34
2023-02-22T03:25:34.170Z,100289.72
2023-02-22T03:26:14.685Z,100280.09
2023-02-22T03:27:02.900Z,100276.69
2023-02-22T03:27:43.565Z,100278.47
2023-02-22T03:28:19.006Z,100273.25
2023-02-22T03:28:54.211Z,100282.53
2023-02-22T03:29:35.547Z,100283.28
2023-02-22T03:30:13.808Z,100285.22
2023-02-22T03:30:52.882Z,100275.84
2023-02-22T03:31:37.268Z,100271.75
2023-02-22T03:32:15.875Z,100275.00
2023-02-22T03:32:54.340Z,100273.41
2023-02-22T03:33:52.728Z,100279.31
2023-02-22T03:34:32.733Z,100276.03
2023-02-22T03:35:11.100Z,100281.34
2023-02-22T03:35:57.024Z,100270.34
2023-02-22T03:36:39.226Z,100266.03
2023-02-22T03:37:26.298Z,100282.28
2023-02-22T03:38:04.728Z,100288.44
2023-02-22T03:38:38.641Z,100286.84
2023-02-22T03:39:16.828Z,100271.25
2023-02-22T03:39:53.039Z,100266.22
2023-02-22T03:40:33.285Z,100275.47
2023-02-22T03:41:08.983Z,100272.84
2023-02-22T03:41:41.272Z,100272.84
2023-02-22T03:42:21.066Z,100272.84
2023-02-22T03:42:59.403Z,100263.50
2023-02-22T03:43:48.824Z,100270.59
2023-02-22T03:44:27.181Z,100264.69
2023-02-22T03:45:04.712Z,100271.34
2023-02-22T03:45:43.507Z,100270.41
2023-02-22T03:46:19.524Z,100280.69
2023-02-22T03:46:56.883Z,100274.91
2023-02-22T03:47:37.459Z,100280.22
2023-02-22T03:48:16.979Z,100270.09
2023-02-22T03:49:00.543Z,100275.22
2023-02-22T03:49:36.392Z,100275.97
2023-02-22T03:50:12.733Z,100271.94
2023-02-22T03:50:44.579Z,100276.91
2023-02-22T03:51:18.929Z,100278.44
2023-02-22T03:51:51.410Z,100278.34
2023-02-22T03:52:23.969Z,100268.97
2023-02-22T03:52:59.119Z,100273.97
2023-02-22T03:53:34.442Z,100274.13
2023-02-22T03:54:07.164Z,100282.81
2023-02-22T03:54:40.411Z,100276.41
2023-02-22T03:55:13.917Z,100288.44
2023-02-22T03:55:51.676Z,100283.97
2023-02-22T03:56:35.744Z,100285.56
2023-02-22T03:57:19.184Z,100270.59
2023-02-22T03:57:58.762Z,100285.25
2023-02-22T03:58:34.685Z,100289.63
2023-02-22T03:59:10.052Z,100291.41
2023-02-22T03:59:42.231Z,100289.72
2023-02-22T04:00:20.232Z,100292.50
2023-02-22T04:00:53.464Z,100283.06
2023-02-22T04:01:25.236Z,100285.53
2023-02-22T04:01:57.383Z,100287.78
2023-02-22T04:02:29.108Z,100290.47
2023-02-22T04:03:02.070Z,100281.81
2023-02-22T04:03:33.781Z,100279.38
2023-02-22T04:04:06.025Z,100287.97
2023-02-22T04:04:38.048Z,100277.84
2023-02-22T04:05:09.852Z,100276.16
2023-02-22T04:05:41.572Z,100285.66
2023-02-22T04:06:13.355Z,100290.06
2023-02-22T04:06:45.485Z,100275.75
2023-02-22T04:07:17.487Z,100286.03
2023-02-22T04:07:49.630Z,100298.66
2023-02-22T04:08:21.398Z,100280.88
2023-02-22T04:08:53.107Z,100285.28
2023-02-22T04:09:24.887Z,100288.47
2023-02-22T04:09:56.574Z,100287.03
2023-02-22T04:10:28.321Z,100279.28
2023-02-22T04:11:01.444Z,100291.34
2023-02-22T04:11:33.174Z,100292.34
2023-02-22T04:12:05.664Z,100294.22
2023-02-22T04:12:37.844Z,100285.78
2023-02-22T04:13:10.756Z,100296.00
2023-02-22T04:13:42.423Z,100292.53
2023-02-22T04:14:14.248Z,100294.53
2023-02-22T04:14:45.922Z,100290.16
2023-02-22T04:15:22.023Z,100291.91
2023-02-22T04:15:54.138Z,100281.66
2023-02-22T04:16:25.878Z,100286.97
2023-02-22T04:16:57.586Z,100287.44
2023-02-22T04:17:29.289Z,100295.91
2023-02-22T04:18:01.022Z,100295.47
2023-02-22T04:18:32.726Z,100285.94
2023-02-22T04:19:04.438Z,100293.69
2023-02-22T04:19:36.359Z,100291.25
2023-02-22T04:20:08.480Z,100287.13
2023-02-22T04:20:40.131Z,100286.28
2023-02-22T04:21:11.896Z,100294.31
2023-02-22T04:21:43.593Z,100282.56
2023-02-22T04:22:15.339Z,100285.09
2023-02-22T04:22:47.494Z,100296.34
2023-02-22T04:23:19.262Z,100302.31
2023-02-22T04:23:51.351Z,100295.53
2023-02-22T04:24:23.069Z,100288.63
2023-02-22T04:24:54.852Z,100294.78
2023-02-22T04:25:26.729Z,100300.75
2023-02-22T04:25:58.453Z,100282.91
2023-02-22T04:26:30.225Z,100290.50
2023-02-22T04:27:02.000Z,100299.09
2023-02-22T04:27:34.485Z,100293.88
2023-02-22T04:28:06.252Z,100290.66
2023-02-22T04:28:37.957Z,100293.88
2023-02-22T04:29:09.730Z,100283.75
2023-02-22T04:29:41.813Z,100299.16
2023-02-22T04:30:13.700Z,100295.72
2023-02-22T04:30:45.970Z,100300.09
2023-02-22T04:31:18.343Z,100294.03
2023-02-22T04:31:50.553Z,100299.25
2023-02-22T04:32:22.383Z,100295.13
2023-02-22T04:32:54.215Z,100283.94
2023-02-22T04:33:25.962Z,100302.03
2023-02-22T04:33:57.706Z,100301.13
2023-02-22T04:34:29.491Z,100301.28
2023-02-22T04:35:01.210Z,100291.94
2023-02-22T04:35:35.413Z,100295.31
2023-02-22T04:36:07.838Z,100302.97
2023-02-22T04:36:42.378Z,100297.84
2023-02-22T04:37:14.220Z,100298.50
2023-02-22T04:37:45.922Z,100293.53
2023-02-22T04:38:17.910Z,100291.94
2023-02-22T04:38:49.600Z,100303.63
2023-02-22T04:39:21.827Z,100295.88
2023-02-22T04:39:53.539Z,100306.16
2023-02-22T04:40:25.226Z,100295.88
2023-02-22T04:40:56.993Z,100291.84
2023-02-22T04:41:28.698Z,100294.22
2023-02-22T04:42:00.592Z,100290.66
2023-02-22T04:42:32.321Z,100300.94
2023-02-22T04:43:04.046Z,100295.88
2023-02-22T04:43:35.773Z,100300.94
2023-02-22T04:44:07.845Z,100296.56
2023-02-22T04:44:39.549Z,100294.63
2023-02-22T04:45:11.412Z,100302.31
2023-02-22T04:45:43.102Z,100297.09
2023-02-22T04:46:14.925Z,100290.31
2023-02-22T04:46:47.003Z,100290.50
2023-02-22T04:47:18.874Z,100297.22
2023-02-22T04:47:50.597Z,100301.88
2023-02-22T04:48:22.280Z,100297.56
2023-02-22T04:48:54.811Z,100293.38
2023-02-22T04:49:26.576Z,100289.16
2023-02-22T04:50:00.433Z,100297.75
2023-02-22T04:50:32.180Z,100287.47
2023-02-22T04:51:04.175Z,100288.41
2023-02-22T04:51:36.935Z,100290.16
2023-02-22T04:52:08.726Z,100298.16
2023-02-22T04:52:40.821Z,100297.16
2023-02-22T04:53:14.785Z,100289.50
2023-02-22T04:53:47.047Z,100296.72
2023-02-22T04:54:19.695Z,100284.09
2023-02-22T04:54:51.562Z,100291.75
2023-02-22T04:55:23.464Z,100296.28
2023-02-22T04:55:55.648Z,100302.53
2023-02-22T04:56:32.924Z,100290.47
2023-02-22T04:57:04.782Z,100291.25
2023-02-22T04:57:36.606Z,100287.09
2023-02-22T04:58:09.597Z,100291.72
2023-02-22T04:58:42.450Z,100297.84
2023-02-22T04:59:14.399Z,100294.06
2023-02-22T04:59:46.103Z,100294.16
2023-02-22T05:00:21.870Z,100293.31
2023-02-22T05:00:54.099Z,100295.50
2023-02-22T05:01:25.828Z,100294.66
2023-02-22T05:01:57.561Z,100292.13
2023-02-22T05:02:29.248Z,100293.13
2023-02-22T05:03:01.071Z,100292.63
2023-02-22T05:03:32.769Z,100290.28
2023-02-22T05:04:06.776Z,100282.63
2023-02-22T05:04:39.003Z,100285.91
2023-02-22T05:05:11.271Z,100293.72
2023-02-22T05:05:43.978Z,100281.69
2023-02-22T05:06:17.836Z,100293.81
2023-02-22T05:06:49.626Z,100295.66
2023-02-22T05:07:21.425Z,100292.06
2023-02-22T05:07:53.377Z,100296.44
2023-02-22T05:08:25.183Z,100290.38
2023-02-22T05:08:56.987Z,100287.00
2023-02-22T05:09:28.879Z,100283.63
2023-02-22T05:10:03.019Z,100279.47
2023-02-22T05:10:34.817Z,100295.66
2023-02-22T05:11:06.710Z,100299.34
2023-02-22T05:11:38.563Z,100280.56
2023-02-22T05:12:10.237Z,100275.00
2023-02-22T05:12:42.031Z,100275.31
2023-02-22T05:13:13.748Z,100286.59
2023-02-22T05:13:45.496Z,100273.09
2023-02-22T05:14:17.202Z,100281.03
2023-02-22T05:14:48.933Z,100272.53
2023-02-22T05:15:23.118Z,100280.22
2023-02-22T05:15:54.941Z,100287.47
2023-02-22T05:16:26.781Z,100285.03
2023-02-22T05:16:59.106Z,100284.03
2023-02-22T05:17:30.857Z,100298.31
2023-02-22T05:18:02.652Z,100273.13
2023-02-22T05:18:34.461Z,100282.34
2023-02-22T05:19:06.303Z,100288.63
2023-02-22T05:19:38.214Z,100278.03
2023-02-22T05:20:29.736Z,100292.41
2023-02-22T05:21:01.495Z,100287.44
2023-02-22T05:21:33.601Z,100297.47
2023-02-22T05:22:05.765Z,100301.09
2023-02-22T05:22:37.455Z,100301.09
2023-02-22T05:23:09.232Z,100291.84
2023-02-22T05:23:41.720Z,100292.59
2023-02-22T05:24:13.392Z,100293.69
2023-02-22T05:24:45.079Z,100291.06
2023-02-22T05:25:16.774Z,100293.69
2023-02-22T05:25:48.534Z,100294.44
2023-02-22T05:26:20.250Z,100293.69
2023-02-22T05:26:53.407Z,100298.06
2023-02-22T05:27:25.464Z,100298.06
2023-02-22T05:27:59.674Z,100302.44
2023-02-22T05:28:32.413Z,100299.66
2023-02-22T05:29:04.232Z,100305.47
2023-02-22T05:29:38.640Z,100300.25
2023-02-22T05:30:11.931Z,100304.47
2023-02-22T05:30:43.846Z,100306.84
2023-02-22T05:31:16.051Z,100302.72
2023-02-22T05:31:48.113Z,100307.00
2023-02-22T05:32:19.971Z,100301.03
2023-02-22T05:32:52.576Z,100308.88
2023-02-22T05:33:24.283Z,100307.31
2023-02-22T05:33:55.998Z,100302.09
2023-02-22T05:34:27.714Z,100309.19
2023-02-22T05:34:59.434Z,100305.06
2023-02-22T05:35:31.147Z,100309.53
2023-02-22T05:36:02.935Z,100312.81
2023-02-22T05:36:34.781Z,100313.84
2023-02-22T05:37:06.455Z,100312.16
2023-02-22T05:37:38.893Z,100312.16
2023-02-22T05:38:15.123Z,100312.25
2023-02-22T05:38:46.844Z,100312.31
2023-02-22T05:39:18.570Z,100310.63
2023-02-22T05:39:53.457Z,100304.84
2023-02-22T05:40:27.868Z,100316.28
2023-02-22T05:40:59.530Z,100310.47
2023-02-22T05:41:31.319Z,100310.56
2023-02-22T05:42:03.064Z,100311.56
2023-02-22T05:42:37.504Z,100313.44
2023-02-22T05:43:09.854Z,100313.44
2023-02-22T05:43:41.845Z,100308.50
2023-02-22T05:44:13.753Z,100309.22
2023-02-22T05:44:45.637Z,100311.06
2023-02-22T05:45:20.857Z,100320.59
2023-02-22T05:45:52.614Z,100318.97
2023-02-22T05:46:25.229Z,100315.59
2023-02-22T05:46:57.078Z,100321.66
2023-02-22T05:47:28.807Z,100316.78
2023-02-22T05:48:01.049Z,100319.22
2023-02-22T05:48:33.242Z,100312.47
2023-02-22T05:49:05.438Z,100316.78
2023-02-22T05:49:37.141Z,100325.28
2023-02-22T05:50:09.960Z,100330.41
2023-02-22T05:50:41.692Z,100308.09
2023-02-22T05:51:13.551Z,100325.44
2023-02-22T05:51:45.265Z,100319.56
2023-02-22T05:52:17.025Z,100315.53
2023-02-22T05:52:49.384Z,100319.94
2023-02-22T05:53:21.102Z,100319.09
2023-02-22T05:53:52.850Z,100312.47
2023-02-22T05:54:24.542Z,100313.38
2023-02-22T05:54:56.225Z,100316.66
2023-02-22T05:55:28.114Z,100319.63
2023-02-22T05:55:59.871Z,100321.72
2023-02-22T05:56:31.680Z,100319.06
2023-02-22T05:57:03.680Z,100317.41
2023-02-22T05:57:35.640Z,100320.03
2023-02-22T05:58:07.377Z,100320.97
2023-02-22T05:58:39.078Z,100322.22
2023-02-22T05:59:10.806Z,100326.34
2023-02-22T05:59:43.154Z,100324.66
2023-02-22T06:00:27.472Z,100329.50
2023-02-22T06:01:00.731Z,100326.03
2023-02-22T06:01:33.312Z,100318.88
2023-02-22T06:02:05.101Z,100326.63
2023-02-22T06:02:36.956Z,100326.81
2023-02-22T06:03:12.560Z,100324.50
2023-02-22T06:03:47.930Z,100309.00
2023-02-22T06:04:20.233Z,100324.31
2023-02-22T06:04:52.227Z,100319.28
2023-02-22T06:05:24.435Z,100321.72
2023-02-22T06:05:56.234Z,100322.34
2023-02-22T06:06:27.957Z,100326.81
2023-02-22T06:06:59.765Z,100321.50
2023-02-22T06:07:31.502Z,100329.31
2023-02-22T06:08:04.366Z,100330.34
2023-02-22T06:08:36.606Z,100319.09
2023-02-22T06:09:08.681Z,100321.72
2023-02-22T06:09:40.937Z,100326.19
2023-02-22T06:10:14.019Z,100327.72
2023-02-22T06:10:45.810Z,100343.22
2023-02-22T06:11:19.753Z,100338.00
2023-02-22T06:11:54.517Z,100346.25
2023-02-22T06:12:27.165Z,100337.50
2023-02-22T06:13:00.308Z,100339.84
2023-02-22T06:13:32.018Z,100349.16
2023-02-22T06:14:03.765Z,100343.16
2023-02-22T06:14:36.208Z,100347.63
2023-02-22T06:15:08.040Z,100342.41
2023-02-22T06:15:39.739Z,100347.28
2023-02-22T06:16:11.513Z,100357.41
2023-02-22T06:16:43.746Z,100352.16
2023-02-22T06:17:19.295Z,100340.03
2023-02-22T06:17:53.356Z,100350.09
2023-02-22T06:18:26.816Z,100348.31
2023-02-22T06:19:00.231Z,100347.13
2023-02-22T06:19:32.176Z,100330.34
2023-02-22T06:20:04.103Z,100340.22
2023-02-22T06:20:35.877Z,100351.34
2023-02-22T06:21:08.928Z,100341.91
2023-02-22T06:21:42.137Z,100333.13
2023-02-22T06:22:18.980Z,100344.75
2023-02-22T06:22:52.942Z,100344.59
2023-02-22T06:23:25.825Z,100330.94
2023-02-22T06:23:57.489Z,100343.75
2023-02-22T06:24:29.237Z,100347.03
2023-02-22T06:25:03.722Z,100332.56
2023-02-22T06:25:36.233Z,100340.03
2023-02-22T06:26:07.972Z,100346.03
2023-02-22T06:26:39.646Z,100336.00
2023-02-22T06:27:11.635Z,100344.59
2023-02-22T06:27:43.553Z,100350.66
2023-02-22T06:28:15.870Z,100354.03
2023-02-22T06:28:47.580Z,100349.56
2023-02-22T06:29:19.291Z,100355.28
2023-02-22T06:29:51.022Z,100353.59
2023-02-22T06:30:25.196Z,100355.09
2023-02-22T06:30:56.967Z,100357.41
2023-02-22T06:31:28.679Z,100359.75
2023-02-22T06:32:00.422Z,100354.16
2023-02-22T06:32:32.329Z,100345.25
2023-02-22T06:33:04.075Z,100349.19
2023-02-22T06:33:35.732Z,100355.72
2023-02-22T06:34:07.508Z,100355.50
2023-02-22T06:34:41.035Z,100354.94
2023-02-22T06:35:12.821Z,100358.13
2023-02-22T06:35:45.332Z,100353.59
2023-02-22T06:36:20.107Z,100358.81
2023-02-22T06:36:51.873Z,100367.84
2023-02-22T06:37:23.585Z,100362.03
2023-02-22T06:37:55.260Z,100364.78
2023-02-22T06:38:27.905Z,100367.22
2023-02-22T06:38:59.728Z,100366.56
2023-02-22T06:39:31.405Z,100362.63
2023-02-22T06:40:05.693Z,100369.38
2023-02-22T06:40:37.806Z,100366.97
2023-02-22T06:41:10.017Z,100363.94
2023-02-22T06:41:43.837Z,100361.13
2023-02-22T06:42:15.806Z,100357.56
2023-02-22T06:42:49.144Z,100355.63
2023-02-22T06:43:21.951Z,100362.38
2023-02-22T06:43:53.630Z,100355.25